createdAt,value
2023-04-02T00:01:02.237Z,98143.19
2023-04-02T00:04:10.863Z,98149.31
2023-04-02T00:06:45.323Z,98148.97
2023-04-02T00:09:22.612Z,98157.16
2023-04-02T00:11:55.060Z,98166.94
2023-04-02T00:14:33.818Z,98162.88
2023-04-02T00:17:03.008Z,98165.34
2023-04-02T00:19:40.116Z,98175.88
2023-04-02T00:22:08.408Z,98182.09
2023-04-02T00:24:35.305Z,98177.91
2023-04-02T00:27:02.056Z,98190.47
2023-04-02T00:29:28.852Z,98198.16
2023-04-02T00:31:59.422Z,98193.66
2023-04-02T00:34:31.225Z,98206.75
2023-04-02T00:36:58.735Z,98206.88
2023-04-02T00:39:30.145Z,98211.94
2023-04-02T00:42:07.809Z,98214.28
2023-04-02T00:44:38.217Z,98222.13
2023-04-02T00:47:12.387Z,98215.25
2023-04-02T00:49:39.902Z,98231.88
2023-04-02T00:52:13.069Z,98233.06
2023-04-02T00:54:44.399Z,98239.41
2023-04-02T00:57:16.786Z,98241.31
2023-04-02T01:03:25.025Z,98247.13
2023-04-02T01:05:57.513Z,98258.13
2023-04-02T01:09:05.859Z,98251.81
2023-04-02T01:12:02.811Z,98256.22
2023-04-02T01:15:02.323Z,98266.25
2023-04-02T01:17:47.037Z,98265.31
2023-04-02T01:20:58.732Z,98281.25
2023-04-02T01:23:42.355Z,98283.97
2023-04-02T01:26:20.370Z,98284.53
2023-04-02T01:29:17.173Z,98288.09
2023-04-02T01:31:45.350Z,98294.84
2023-04-02T01:34:16.765Z,98299.91
2023-04-02T01:37:02.402Z,98295.94
2023-04-02T01:40:11.577Z,98310.50
2023-04-02T01:43:11.025Z,98322.16
2023-04-02T01:45:37.882Z,98330.66
2023-04-02T01:48:14.739Z,98332.19
2023-04-02T01:50:43.259Z,98339.88
2023-04-02T01:53:15.766Z,98344.00
2023-04-02T01:55:49.044Z,98351.25
2023-04-02T01:58:20.346Z,98346.44
2023-04-02T02:00:51.736Z,98359.88
2023-04-02T02:03:19.572Z,98367.44
2023-04-02T02:05:46.844Z,98363.97
2023-04-02T02:08:24.469Z,98367.72
2023-04-02T02:10:51.845Z,98376.22
2023-04-02T02:13:18.612Z,98375.53
2023-04-02T02:15:45.567Z,98387.97
2023-04-02T02:18:13.393Z,98389.72
2023-04-02T02:20:40.498Z,98391.63
2023-04-02T02:23:07.585Z,98398.91
2023-04-02T02:25:35.323Z,98399.69
2023-04-02T02:28:18.553Z,98407.97
2023-04-02T02:30:48.130Z,98417.38
2023-04-02T02:33:26.684Z,98424.13
2023-04-02T02:36:04.818Z,98426.38
2023-04-02T02:38:42.851Z,98436.47
2023-04-02T02:41:18.322Z,98441.69
2023-04-02T02:43:57.412Z,98442.91
2023-04-02T02:46:25.683Z,98451.25
2023-04-02T02:48:54.154Z,98449.59
2023-04-02T02:51:27.699Z,98452.66
2023-04-02T02:53:59.468Z,98453.88
2023-04-02T02:56:27.072Z,98463.31
2023-04-02T02:58:54.362Z,98464.47
2023-04-02T03:01:21.547Z,98469.56
2023-04-02T03:03:49.348Z,98473.75
2023-04-02T03:06:17.611Z,98478.94
2023-04-02T03:09:13.795Z,98470.44
2023-04-02T03:11:49.999Z,98490.78
2023-04-02T03:14:23.563Z,98492.50
2023-04-02T03:16:55.353Z,98496.56
2023-04-02T03:20:06.746Z,98503.03
2023-04-02T03:22:40.097Z,98519.72
2023-04-02T03:25:34.149Z,98521.75
2023-04-02T03:28:06.822Z,98522.47
2023-04-02T03:30:57.865Z,98531.91
2023-04-02T03:33:28.202Z,98545.75
2023-04-02T03:36:20.913Z,98553.78
2023-04-02T03:38:52.506Z,98559.81
2023-04-02T03:41:23.892Z,98560.56
2023-04-02T03:43:54.147Z,98574.03
2023-04-02T03:46:41.744Z,98569.25
2023-04-02T03:49:19.094Z,98577.09
2023-04-02T03:51:53.354Z,98572.94
2023-04-02T03:54:20.057Z,98586.00
2023-04-02T03:56:47.877Z,98586.94
2023-04-02T03:59:38.632Z,98592.50
2023-04-02T04:02:27.115Z,98592.75
2023-04-02T04:04:56.292Z,98593.09
2023-04-02T04:07:31.008Z,98605.78
2023-04-02T04:09:58.809Z,98601.28
2023-04-02T04:12:35.347Z,98604.56
2023-04-02T04:15:16.553Z,98613.44
2023-04-02T04:18:10.835Z,98626.97
2023-04-02T04:20:59.342Z,98633.22
2023-04-02T04:23:37.084Z,98634.56
2023-04-02T04:26:10.101Z,98644.25
2023-04-02T04:28:44.489Z,98641.53
2023-04-02T04:31:21.814Z,98646.16
2023-04-02T04:33:55.973Z,98650.19
2023-04-02T04:36:32.609Z,98655.81
2023-04-02T04:39:06.062Z,98663.13
2023-04-02T04:41:36.702Z,98665.75
2023-04-02T04:44:39.276Z,98679.56
2023-04-02T04:47:16.835Z,98685.97
2023-04-02T04:49:47.816Z,98696.63
2023-04-02T04:52:24.200Z,98699.53
2023-04-02T04:54:51.167Z,98699.09
2023-04-02T04:57:38.191Z,98715.34
2023-04-02T05:00:13.232Z,98720.88
2023-04-02T05:02:47.813Z,98730.34
2023-04-02T05:05:20.974Z,98726.28
2023-04-02T05:07:51.902Z,98731.22
2023-04-02T05:10:41.913Z,98735.16
2023-04-02T05:13:17.825Z,98745.22
2023-04-02T05:16:24.364Z,98754.44
2023-04-02T05:18:57.416Z,98750.91
2023-04-02T05:21:42.603Z,98768.69
2023-04-02T05:24:32.931Z,98766.28
2023-04-02T05:27:25.977Z,98781.63
2023-04-02T05:29:58.496Z,98778.94
2023-04-02T05:32:34.710Z,98786.03
2023-04-02T05:35:04.846Z,98787.94
2023-04-02T05:37:32.178Z,98798.09
2023-04-02T05:40:06.985Z,98798.28
2023-04-02T05:42:36.058Z,98810.41
2023-04-02T05:45:25.100Z,98808.75
2023-04-02T05:47:54.734Z,98807.81
2023-04-02T05:50:37.725Z,98819.06
2023-04-02T05:53:12.725Z,98830.66
2023-04-02T05:56:00.816Z,98831.94
2023-04-02T05:59:00.863Z,98837.75
2023-04-02T06:01:56.454Z,98845.53
2023-04-02T06:04:45.071Z,98846.34
2023-04-02T06:07:17.297Z,98847.88
2023-04-02T06:09:48.605Z,98849.78
2023-04-02T06:12:22.212Z,98860.25
2023-04-02T06:14:49.129Z,98866.16
2023-04-02T06:17:18.334Z,98874.84
2023-04-02T06:19:47.021Z,98875.28
2023-04-02T06:22:24.937Z,98883.69
2023-04-02T06:24:59.174Z,98902.34
2023-04-02T06:27:27.106Z,98900.59
2023-04-02T06:29:57.687Z,98909.00
2023-04-02T06:32:27.143Z,98922.94
2023-04-02T06:34:54.799Z,98918.97
2023-04-02T06:37:34.390Z,98927.72
2023-04-02T06:40:01.992Z,98933.78
2023-04-02T06:42:31.614Z,98940.63
2023-04-02T06:44:58.752Z,98943.13
2023-04-02T06:47:39.332Z,98951.88
2023-04-02T06:50:31.835Z,98957.59
2023-04-02T06:53:00.992Z,98959.78
2023-04-02T06:55:30.647Z,98966.81
2023-04-02T06:57:57.742Z,98969.13
2023-04-02T07:00:46.350Z,98972.88
2023-04-02T07:03:43.546Z,98977.66
2023-04-02T07:06:16.434Z,98985.13
2023-04-02T07:08:43.773Z,98994.41
2023-04-02T07:11:20.785Z,99004.47
2023-04-02T07:13:48.845Z,98998.59
2023-04-02T07:16:20.527Z,99017.84
2023-04-02T07:18:48.676Z,99011.69
2023-04-02T07:21:16.135Z,99015.75
2023-04-02T07:23:43.120Z,99015.84
2023-04-02T07:26:17.797Z,99025.84
2023-04-02T07:28:45.008Z,99037.56
2023-04-02T07:31:24.691Z,99040.19
2023-04-02T07:33:52.758Z,99042.47
2023-04-02T07:36:21.929Z,99055.56
2023-04-02T07:38:48.979Z,99049.47
2023-04-02T07:41:17.535Z,99062.72
2023-04-02T07:43:44.339Z,99072.09
2023-04-02T07:46:12.026Z,99083.00
2023-04-02T07:48:39.582Z,99076.16
2023-04-02T07:51:12.938Z,99092.19
2023-04-02T07:53:39.808Z,99094.34
2023-04-02T07:56:07.613Z,99094.34
2023-04-02T07:58:34.606Z,99095.47
2023-04-02T08:01:05.696Z,99105.63
2023-04-02T08:03:33.217Z,99118.09
2023-04-02T08:06:00.349Z,99115.44
2023-04-02T08:08:27.164Z,99132.53
2023-04-02T08:10:56.135Z,99125.66
2023-04-02T08:13:23.450Z,99129.38
2023-04-02T08:15:50.454Z,99136.38
2023-04-02T08:18:17.146Z,99139.47
2023-04-02T08:20:43.993Z,99144.16
2023-04-02T08:23:17.302Z,99155.41
2023-04-02T08:25:45.922Z,99160.00
2023-04-02T08:28:12.874Z,99164.31
2023-04-02T08:30:39.853Z,99172.91
2023-04-02T08:33:07.151Z,99176.25
2023-04-02T08:35:34.876Z,99176.47
2023-04-02T08:38:02.099Z,99187.41
2023-04-02T08:40:36.241Z,99186.47
2023-04-02T08:43:42.344Z,99190.66
2023-04-02T08:46:37.051Z,99201.03
2023-04-02T08:49:30.626Z,99207.00
2023-04-02T08:51:57.641Z,99216.91
2023-04-02T08:54:34.873Z,99223.38
2023-04-02T08:57:25.471Z,99231.84
2023-04-02T08:59:59.651Z,99232.75
2023-04-02T09:02:36.421Z,99232.28
2023-04-02T09:05:06.624Z,99244.00
2023-04-02T09:07:34.100Z,99253.91
2023-04-02T09:10:01.300Z,99245.47
2023-04-02T09:12:31.228Z,99249.56
2023-04-02T09:15:19.077Z,99252.81
2023-04-02T09:17:53.485Z,99257.06
2023-04-02T09:20:26.610Z,99261.16
2023-04-02T09:22:54.614Z,99276.47
2023-04-02T09:25:27.446Z,99278.09
2023-04-02T09:27:56.382Z,99265.69
2023-04-02T09:30:52.617Z,99285.72
2023-04-02T09:33:19.645Z,99291.38
2023-04-02T09:35:58.201Z,99298.34
2023-04-02T09:38:31.209Z,99297.59
2023-04-02T09:41:01.068Z,99292.78
2023-04-02T09:43:33.018Z,99298.69
2023-04-02T09:46:04.436Z,99315.03
2023-04-02T09:49:04.101Z,99313.56
2023-04-02T09:51:35.420Z,99325.59
2023-04-02T09:54:13.119Z,99327.91
2023-04-02T09:56:41.717Z,99338.13
2023-04-02T09:59:22.243Z,99334.03
2023-04-02T10:02:05.211Z,99340.25
2023-04-02T10:04:38.912Z,99346.81
2023-04-02T10:07:06.754Z,99334.47
2023-04-02T10:09:36.672Z,99344.13
2023-04-02T10:12:06.325Z,99351.84
2023-04-02T10:14:40.611Z,99345.78
2023-04-02T10:17:20.418Z,99360.84
2023-04-02T10:19:50.537Z,99364.84
2023-04-02T10:22:19.503Z,99371.97
2023-04-02T10:24:46.671Z,99365.66
2023-04-02T10:27:52.957Z,99368.28
2023-04-02T10:30:51.062Z,99368.84
2023-04-02T10:33:21.840Z,99367.66
2023-04-02T10:36:03.325Z,99374.88
2023-04-02T10:38:43.289Z,99379.41
2023-04-02T10:41:23.996Z,99381.44
2023-04-02T10:44:24.469Z,99384.00
2023-04-02T10:47:13.213Z,99401.09
2023-04-02T10:49:49.181Z,99399.63
2023-04-02T10:52:30.172Z,99401.88
2023-04-02T10:55:02.034Z,99422.44
2023-04-02T10:57:38.064Z,99410.38
2023-04-02T11:00:28.769Z,99413.84
2023-04-02T11:03:29.924Z,99413.38
2023-04-02T11:06:06.341Z,99426.09
2023-04-02T11:08:46.608Z,99435.06
2023-04-02T11:11:17.744Z,99430.28
2023-04-02T11:13:59.620Z,99436.16
2023-04-02T11:16:29.742Z,99436.41
2023-04-02T11:19:37.314Z,99445.84
2023-04-02T11:22:15.301Z,99452.19
2023-04-02T11:24:58.294Z,99464.06
2023-04-02T11:27:33.561Z,99458.88
2023-04-02T11:30:18.602Z,99462.59
2023-04-02T11:32:51.981Z,99475.00
2023-04-02T11:35:51.845Z,99476.72
2023-04-02T11:38:52.480Z,99470.16
2023-04-02T11:41:58.241Z,99473.53
2023-04-02T11:44:26.000Z,99483.84
2023-04-02T11:46:53.812Z,99482.47
2023-04-02T11:49:40.302Z,99487.03
2023-04-02T11:52:23.120Z,99499.44
2023-04-02T11:55:03.135Z,99497.69
2023-04-02T11:58:00.646Z,99493.78
2023-04-02T12:01:06.146Z,99492.75
2023-04-02T12:04:05.028Z,99500.94
2023-04-02T12:06:49.096Z,99508.09
2023-04-02T12:09:51.799Z,99504.03
2023-04-02T12:12:33.488Z,99521.75
2023-04-02T12:15:01.975Z,99520.28
2023-04-02T12:17:38.316Z,99523.91
2023-04-02T12:20:32.806Z,99534.50
2023-04-02T12:23:02.169Z,99524.81
2023-04-02T12:25:33.599Z,99539.50
2023-04-02T12:28:21.388Z,99533.75
2023-04-02T12:30:52.285Z,99533.94
2023-04-02T12:33:31.974Z,99545.47
2023-04-02T12:36:01.932Z,99539.22
2023-04-02T12:38:31.460Z,99544.06
2023-04-02T12:41:00.847Z,99552.16
2023-04-02T12:43:33.677Z,99557.34
2023-04-02T12:46:11.478Z,99556.97
2023-04-02T12:48:40.411Z,99567.75
2023-04-02T12:51:08.221Z,99565.53
2023-04-02T12:53:39.882Z,99556.03
2023-04-02T12:56:09.548Z,99555.59
2023-04-02T12:58:44.560Z,99557.75
2023-04-02T13:01:20.955Z,99564.69
2023-04-02T13:04:02.716Z,99564.06
2023-04-02T13:06:32.279Z,99569.22
2023-04-02T13:09:02.272Z,99565.56
2023-04-02T13:11:42.069Z,99569.91
2023-04-02T13:14:22.373Z,99558.81
2023-04-02T13:16:53.809Z,99567.56
2023-04-02T13:19:27.582Z,99574.56
2023-04-02T13:21:56.837Z,99573.59
2023-04-02T13:24:26.016Z,99569.97
2023-04-02T13:27:02.325Z,99572.50
2023-04-02T13:29:36.330Z,99575.59
2023-04-02T13:32:09.872Z,99573.72
2023-04-02T13:34:39.643Z,99579.47
2023-04-02T13:37:09.211Z,99585.63
2023-04-02T13:39:40.466Z,99587.09
2023-04-02T13:42:11.969Z,99582.81
2023-04-02T13:44:44.506Z,99586.72
2023-04-02T13:47:16.430Z,99596.38
2023-04-02T13:49:44.853Z,99596.22
2023-04-02T13:52:16.572Z,99600.00
2023-04-02T13:54:52.329Z,99593.44
2023-04-02T13:57:22.004Z,99604.00
2023-04-02T13:59:49.919Z,99610.16
2023-04-02T14:02:19.881Z,99604.47
2023-04-02T14:05:16.121Z,99625.56
2023-04-02T14:07:53.963Z,99617.94
2023-04-02T14:10:57.470Z,99624.28
2023-04-02T14:13:45.589Z,99626.91
2023-04-02T14:16:52.675Z,99637.91
2023-04-02T14:19:46.650Z,99630.97
2023-04-02T14:22:45.290Z,99643.31
2023-04-02T14:25:47.689Z,99640.91
2023-04-02T14:28:49.769Z,99632.63
2023-04-02T14:31:29.606Z,99649.91
2023-04-02T14:34:44.915Z,99656.31
2023-04-02T14:37:49.018Z,99642.28
2023-04-02T14:40:49.119Z,99650.84
2023-04-02T14:43:23.412Z,99653.53
2023-04-02T14:46:20.871Z,99663.78
2023-04-02T14:49:02.235Z,99663.31
2023-04-02T14:51:55.905Z,99667.22
2023-04-02T14:54:38.466Z,99661.94
2023-04-02T14:57:26.748Z,99669.66
2023-04-02T15:00:01.913Z,99666.66
2023-04-02T15:02:52.563Z,99658.66
2023-04-02T15:05:38.422Z,99664.81
2023-04-02T15:08:13.440Z,99665.94
2023-04-02T15:10:51.796Z,99667.41
2023-04-02T15:13:25.720Z,99658.75
2023-04-02T15:16:01.389Z,99675.59
2023-04-02T15:18:30.969Z,99682.56
2023-04-02T15:21:31.917Z,99679.25
2023-04-02T15:24:44.099Z,99687.22
2023-04-02T15:27:47.574Z,99690.47
2023-04-02T15:30:19.581Z,99692.25
2023-04-02T15:32:47.884Z,99698.78
2023-04-02T15:35:46.138Z,99701.47
2023-04-02T15:38:26.935Z,99697.56
2023-04-02T15:41:06.166Z,99708.06
2023-04-02T15:43:49.900Z,99707.22
2023-04-02T15:46:26.869Z,99714.00
2023-04-02T15:49:18.755Z,99710.28
2023-04-02T15:52:12.938Z,99718.41
2023-04-02T15:54:53.384Z,99726.78
2023-04-02T15:58:01.897Z,99722.19
2023-04-02T16:00:33.873Z,99730.75
2023-04-02T16:03:28.143Z,99723.03
2023-04-02T16:06:27.204Z,99728.25
2023-04-02T16:09:11.737Z,99732.81
2023-04-02T16:11:39.907Z,99737.75
2023-04-02T16:14:26.521Z,99738.94
2023-04-02T16:17:05.690Z,99740.63
2023-04-02T16:19:47.741Z,99746.75
2023-04-02T16:22:34.638Z,99747.50
2023-04-02T16:25:17.389Z,99745.91
2023-04-02T16:28:15.905Z,99752.28
2023-04-02T16:31:08.740Z,99744.63
2023-04-02T16:34:14.334Z,99752.84
2023-04-02T16:36:43.866Z,99754.72
2023-04-02T16:39:37.295Z,99741.78
2023-04-02T16:42:44.733Z,99748.75
2023-04-02T16:45:54.223Z,99757.50
2023-04-02T16:48:54.772Z,99762.44
2023-04-02T16:51:52.938Z,99768.47
2023-04-02T16:55:02.418Z,99762.25
2023-04-02T16:58:07.633Z,99778.81
2023-04-02T17:01:00.175Z,99780.00
2023-04-02T17:03:57.348Z,99784.72
2023-04-02T17:07:12.252Z,99784.09
2023-04-02T17:09:56.711Z,99784.88
2023-04-02T17:12:39.777Z,99795.06
2023-04-02T17:15:28.759Z,99792.91
2023-04-02T17:17:59.785Z,99792.13
2023-04-02T17:20:27.921Z,99788.28
2023-04-02T17:22:56.518Z,99794.09
2023-04-02T17:25:30.101Z,99798.78
2023-04-02T17:27:57.762Z,99799.34
2023-04-02T17:30:39.144Z,99808.34
2023-04-02T17:33:19.035Z,99810.88
2023-04-02T17:36:23.680Z,99816.63
2023-04-02T17:39:07.668Z,99818.31
2023-04-02T17:42:02.107Z,99821.44
2023-04-02T17:45:06.353Z,99819.78
2023-04-02T17:48:10.793Z,99819.97
2023-04-02T17:51:12.156Z,99829.09
2023-04-02T17:54:07.964Z,99827.16
2023-04-02T17:57:19.572Z,99833.72
2023-04-02T18:00:48.132Z,99834.09
2023-04-02T18:03:43.824Z,99839.75
2023-04-02T18:06:32.915Z,99836.97
2023-04-02T18:09:33.482Z,99837.66
2023-04-02T18:12:20.250Z,99841.81
2023-04-02T18:15:02.333Z,99856.25
2023-04-02T18:17:48.407Z,99852.44
2023-04-02T18:20:49.339Z,99863.88
2023-04-02T18:23:38.104Z,99864.75
2023-04-02T18:26:37.134Z,99862.09
2023-04-02T18:29:16.237Z,99861.72
2023-04-02T18:31:53.439Z,99871.63
2023-04-02T18:34:37.420Z,99871.94
2023-04-02T18:37:27.004Z,99879.13
2023-04-02T18:40:09.433Z,99884.31
2023-04-02T18:43:05.560Z,99879.03
2023-04-02T18:45:49.551Z,99864.13
2023-04-02T18:48:41.423Z,99882.88
2023-04-02T18:51:17.255Z,99894.69
2023-04-02T18:53:44.776Z,99895.91
2023-04-02T18:56:15.148Z,99903.34
2023-04-02T18:59:07.032Z,99900.84
2023-04-02T19:01:38.997Z,99900.75
2023-04-02T19:04:13.827Z,99911.53
2023-04-02T19:06:45.712Z,99901.31
2023-04-02T19:09:43.963Z,99912.06
2023-04-02T19:12:22.815Z,99920.72
2023-04-02T19:14:52.384Z,99924.34
2023-04-02T19:17:40.166Z,99916.88
2023-04-02T19:20:30.228Z,99923.72
2023-04-02T19:23:15.942Z,99931.41
2023-04-02T19:26:06.032Z,99917.59
2023-04-02T19:29:04.104Z,99931.06
2023-04-02T19:31:51.268Z,99935.75
2023-04-02T19:34:54.347Z,99934.41
2023-04-02T19:37:40.976Z,99938.97
2023-04-02T19:40:22.351Z,99942.22
2023-04-02T19:42:51.917Z,99944.47
2023-04-02T19:45:39.553Z,99947.41
2023-04-02T19:48:16.745Z,99946.69
2023-04-02T19:50:44.904Z,99962.38
2023-04-02T19:53:12.696Z,99957.50
2023-04-02T19:55:44.568Z,99962.06
2023-04-02T19:58:29.002Z,99951.72
2023-04-02T20:00:56.325Z,99957.59
2023-04-02T20:03:23.633Z,99966.31
2023-04-02T20:05:50.973Z,99963.06
2023-04-02T20:08:18.345Z,99970.22
2023-04-02T20:10:46.272Z,99962.63
2023-04-02T20:13:13.276Z,99963.06
2023-04-02T20:15:41.350Z,99963.31
2023-04-02T20:18:09.872Z,99971.13
2023-04-02T20:20:38.029Z,99963.31
2023-04-02T20:23:05.305Z,99971.63
2023-04-02T20:25:32.249Z,99972.72
2023-04-02T20:28:01.156Z,99973.72
2023-04-02T20:30:28.355Z,99976.25
2023-04-02T20:32:56.033Z,99988.50
2023-04-02T20:35:23.094Z,99987.34
2023-04-02T20:37:50.321Z,99987.69
2023-04-02T20:40:17.134Z,99992.06
2023-04-02T20:42:43.965Z,99987.50
2023-04-02T20:45:11.341Z,100001.47
2023-04-02T20:47:38.839Z,100005.66
2023-04-02T20:50:08.861Z,100006.81
2023-04-02T20:52:36.032Z,100012.38
2023-04-02T20:55:04.092Z,100011.91
2023-04-02T20:57:31.013Z,100019.25
2023-04-02T20:59:59.353Z,100024.56
2023-04-02T21:02:26.381Z,100032.75
2023-04-02T21:04:53.210Z,100026.06
2023-04-02T21:07:20.178Z,100038.16
2023-04-02T21:09:46.900Z,100029.69
2023-04-02T21:12:14.709Z,100036.25
2023-04-02T21:14:41.895Z,100038.94
2023-04-02T21:17:08.782Z,100040.78
2023-04-02T21:19:36.367Z,100035.94
2023-04-02T21:22:05.214Z,100049.53
2023-04-02T21:24:32.217Z,100044.09
2023-04-02T21:26:59.353Z,100044.97
2023-04-02T21:29:26.371Z,100050.38
2023-04-02T21:31:53.356Z,100047.09
2023-04-02T21:34:20.210Z,100044.09
2023-04-02T21:36:49.330Z,100052.91
2023-04-02T21:39:19.760Z,100054.06
2023-04-02T21:41:50.342Z,100055.50
2023-04-02T21:44:19.272Z,100053.91
2023-04-02T21:46:47.054Z,100058.00
2023-04-02T21:49:17.408Z,100069.88
2023-04-02T21:51:47.349Z,100066.81
2023-04-02T21:54:14.517Z,100068.84
2023-04-02T21:56:43.855Z,100070.53
2023-04-02T21:59:11.950Z,100075.75
2023-04-02T22:01:41.302Z,100073.63
2023-04-02T22:04:09.629Z,100076.75
2023-04-02T22:06:41.290Z,100072.72
2023-04-02T22:09:14.413Z,100079.09
2023-04-02T22:11:44.165Z,100083.44
2023-04-02T22:14:11.649Z,100079.16
2023-04-02T22:16:39.438Z,100083.44
2023-04-02T22:19:09.797Z,100082.84
2023-04-02T22:21:37.041Z,100089.13
2023-04-02T22:24:07.009Z,100087.78
2023-04-02T22:26:34.844Z,100101.03
2023-04-02T22:29:02.043Z,100097.13
2023-04-02T22:31:30.808Z,100097.84
2023-04-02T22:33:58.167Z,100101.03
2023-04-02T22:36:26.519Z,100101.31
2023-04-02T22:38:54.205Z,100106.72
2023-04-02T22:41:29.189Z,100113.59
2023-04-02T22:43:57.033Z,100115.75
2023-04-02T22:46:25.332Z,100123.78
2023-04-02T22:48:52.406Z,100118.66
2023-04-02T22:51:21.141Z,100124.16
2023-04-02T22:53:48.724Z,100126.44
2023-04-02T22:56:22.296Z,100122.72
2023-04-02T22:58:49.540Z,100126.94
2023-04-02T23:01:26.091Z,100130.44
2023-04-02T23:03:54.651Z,100126.25
2023-04-02T23:06:21.804Z,100132.91
2023-04-02T23:08:48.682Z,100138.47
2023-04-02T23:11:24.353Z,100143.63
2023-04-02T23:13:53.187Z,100133.50
2023-04-02T23:16:20.732Z,100142.44
2023-04-02T23:18:49.006Z,100145.28
2023-04-02T23:21:21.453Z,100150.63
2023-04-02T23:23:48.969Z,100146.34
2023-04-02T23:26:18.538Z,100153.22
2023-04-02T23:28:47.149Z,100143.50
2023-04-02T23:31:16.586Z,100148.34
2023-04-02T23:33:44.294Z,100157.47
2023-04-02T23:36:15.252Z,100154.44
2023-04-02T23:38:42.103Z,100162.59
2023-04-02T23:41:16.528Z,100155.16
2023-04-02T23:43:43.919Z,100150.94
2023-04-02T23:46:11.081Z,100154.66
2023-04-02T23:48:37.953Z,100159.16
2023-04-02T23:51:09.081Z,100157.44
2023-04-02T23:53:36.251Z,100158.91
2023-04-02T23:56:03.386Z,100165.88
2023-04-02T23:58:31.244Z,100163.25
